createdAt,value
2022-12-13T00:01:45.309Z,97739.75
2022-12-13T00:04:11.960Z,97746.97
2022-12-13T00:06:38.482Z,97741.75
2022-12-13T00:09:05.855Z,97736.47
2022-12-13T00:11:32.884Z,97728.13
2022-12-13T00:13:59.342Z,97729.13
2022-12-13T00:16:26.921Z,97725.50
2022-12-13T00:18:58.373Z,97722.56
2022-12-13T00:21:28.327Z,97718.16
2022-12-13T00:23:55.676Z,97724.03
2022-12-13T00:26:25.242Z,97725.00
2022-12-13T00:28:52.934Z,97717.47
2022-12-13T00:34:08.058Z,97712.56
2022-12-13T00:36:35.846Z,97702.56
2022-12-13T00:39:02.415Z,97711.09
2022-12-13T00:41:34.485Z,97701.25
2022-12-13T00:44:02.921Z,97695.69
2022-12-13T00:46:29.992Z,97698.47
2022-12-13T00:48:59.269Z,97699.78
2022-12-13T00:51:28.276Z,97696.50
2022-12-13T00:53:54.947Z,97692.91
2022-12-13T00:56:25.423Z,97699.47
2022-12-13T00:58:53.153Z,97701.75
2022-12-13T01:01:24.589Z,97700.44
2022-12-13T01:03:53.789Z,97703.38
2022-12-13T01:06:23.069Z,97701.28
2022-12-13T01:08:49.993Z,97703.06
2022-12-13T01:11:17.481Z,97693.91
2022-12-13T01:13:44.664Z,97697.50
2022-12-13T01:16:12.468Z,97696.84
2022-12-13T01:18:40.636Z,97691.44
2022-12-13T01:21:07.019Z,97686.53
2022-12-13T01:23:34.265Z,97679.00
2022-12-13T01:26:05.175Z,97681.59
2022-12-13T01:28:32.687Z,97679.16
2022-12-13T01:31:05.118Z,97679.31
2022-12-13T01:33:32.432Z,97668.38
2022-12-13T01:36:03.695Z,97671.63
2022-12-13T01:38:30.175Z,97675.03
2022-12-13T01:41:00.299Z,97666.53
2022-12-13T01:43:49.256Z,97671.28
2022-12-13T01:46:17.751Z,97680.94
2022-12-13T01:49:01.183Z,97673.25
2022-12-13T01:51:47.223Z,97666.03
2022-12-13T01:54:21.131Z,97674.41
2022-12-13T01:57:00.626Z,97673.25
2022-12-13T01:59:28.080Z,97670.63
2022-12-13T02:01:54.563Z,97676.50
2022-12-13T02:04:31.805Z,97676.88
2022-12-13T02:06:58.796Z,97670.78
2022-12-13T02:09:26.183Z,97668.38
2022-12-13T02:11:53.041Z,97665.06
2022-12-13T02:14:19.515Z,97661.81
2022-12-13T02:16:48.920Z,97657.69
2022-12-13T02:19:48.516Z,97659.69
2022-12-13T02:22:26.866Z,97656.25
2022-12-13T02:25:05.783Z,97652.97
2022-12-13T02:27:42.803Z,97646.41
2022-12-13T02:30:30.505Z,97642.16
2022-12-13T02:33:21.455Z,97640.03
2022-12-13T02:36:01.609Z,97644.63
2022-12-13T02:38:44.776Z,97638.22
2022-12-13T02:41:21.765Z,97632.97
2022-12-13T02:44:01.131Z,97647.38
2022-12-13T02:46:32.719Z,97643.94
2022-12-13T02:49:00.622Z,97650.31
2022-12-13T02:51:28.829Z,97639.69
2022-12-13T02:53:55.500Z,97644.09
2022-12-13T02:56:22.018Z,97633.31
2022-12-13T02:58:52.418Z,97636.28
2022-12-13T03:01:28.939Z,97637.06
2022-12-13T03:04:01.991Z,97639.53
2022-12-13T03:07:17.734Z,97628.72
2022-12-13T03:10:01.541Z,97628.53
2022-12-13T03:12:49.686Z,97618.88
2022-12-13T03:15:29.802Z,97620.53
2022-12-13T03:18:17.887Z,97626.25
2022-12-13T03:20:57.827Z,97621.66
2022-12-13T03:23:25.448Z,97615.47
2022-12-13T03:25:59.504Z,97616.94
2022-12-13T03:28:26.029Z,97621.84
2022-12-13T03:30:52.560Z,97604.16
2022-12-13T03:33:19.051Z,97616.56
2022-12-13T03:35:46.129Z,97620.53
2022-12-13T03:38:21.231Z,97611.38
2022-12-13T03:40:52.367Z,97612.03
2022-12-13T03:43:22.392Z,97617.88
2022-12-13T03:45:50.975Z,97617.56
2022-12-13T03:48:22.231Z,97614.81
2022-12-13T03:50:50.829Z,97621.66
2022-12-13T03:53:32.025Z,97619.84
2022-12-13T03:56:01.344Z,97620.19
2022-12-13T03:58:36.398Z,97614.31
2022-12-13T04:01:14.718Z,97613.47
2022-12-13T04:03:42.994Z,97615.72
2022-12-13T04:06:09.917Z,97615.91
2022-12-13T04:08:37.894Z,97608.69
2022-12-13T04:11:25.276Z,97609.03
2022-12-13T04:13:52.499Z,97601.56
2022-12-13T04:16:19.447Z,97601.72
2022-12-13T04:18:46.010Z,97603.19
2022-12-13T04:21:12.438Z,97597.47
2022-12-13T04:23:38.935Z,97596.00
2022-12-13T04:26:05.639Z,97598.75
2022-12-13T04:28:32.190Z,97600.88
2022-12-13T04:30:58.702Z,97603.19
2022-12-13T04:33:25.599Z,97597.28
2022-12-13T04:35:52.231Z,97598.91
2022-12-13T04:38:19.017Z,97603.84
2022-12-13T04:40:45.991Z,97596.16
2022-12-13T04:43:12.443Z,97588.31
2022-12-13T04:45:39.007Z,97590.25
2022-12-13T04:48:05.934Z,97594.34
2022-12-13T04:50:32.798Z,97589.94
2022-12-13T04:52:59.359Z,97595.50
2022-12-13T04:55:25.865Z,97588.13
2022-12-13T04:57:52.379Z,97585.84
2022-12-13T05:00:20.287Z,97584.03
2022-12-13T05:02:46.800Z,97582.88
2022-12-13T05:05:13.668Z,97591.88
2022-12-13T05:07:42.193Z,97585.19
2022-12-13T05:10:10.572Z,97590.13
2022-12-13T05:12:37.067Z,97590.41
2022-12-13T05:15:03.859Z,97587.13
2022-12-13T05:17:30.417Z,97588.78
2022-12-13T05:19:56.897Z,97583.72
2022-12-13T05:22:23.450Z,97574.53
2022-12-13T05:24:50.035Z,97572.34
2022-12-13T05:27:25.780Z,97574.81
2022-12-13T05:30:03.245Z,97573.72
2022-12-13T05:32:44.120Z,97570.78
2022-12-13T05:35:23.496Z,97576.03
2022-12-13T05:37:54.113Z,97576.03
2022-12-13T05:40:23.021Z,97567.03
2022-12-13T05:42:49.981Z,97571.78
2022-12-13T05:45:19.010Z,97571.44
2022-12-13T05:47:46.016Z,97567.03
2022-12-13T05:50:14.154Z,97567.22
2022-12-13T05:52:40.650Z,97559.50
2022-12-13T05:55:07.439Z,97566.88
2022-12-13T05:57:34.273Z,97557.88
2022-12-13T06:00:00.859Z,97562.28
2022-12-13T06:02:27.803Z,97557.69
2022-12-13T06:04:54.422Z,97559.69
2022-12-13T06:07:21.133Z,97559.34
2022-12-13T06:09:47.591Z,97560.81
2022-12-13T06:12:30.940Z,97565.41
2022-12-13T06:15:00.931Z,97567.53
2022-12-13T06:17:37.585Z,97569.00
2022-12-13T06:20:23.639Z,97563.25
2022-12-13T06:22:52.134Z,97562.94
2022-12-13T06:25:30.643Z,97568.50
2022-12-13T06:28:01.795Z,97568.84
2022-12-13T06:30:31.915Z,97558.53
2022-12-13T06:32:58.480Z,97579.94
2022-12-13T06:35:28.914Z,97574.72
2022-12-13T06:38:01.605Z,97570.69
2022-12-13T06:40:31.358Z,97575.28
2022-12-13T06:42:58.129Z,97572.53
2022-12-13T06:45:25.382Z,97578.28
2022-12-13T06:47:52.085Z,97582.25
2022-12-13T06:50:18.622Z,97573.56
2022-12-13T06:52:46.471Z,97582.06
2022-12-13T06:55:12.981Z,97585.19
2022-12-13T06:57:40.885Z,97588.47
2022-12-13T07:00:09.514Z,97580.28
2022-12-13T07:02:36.268Z,97571.44
2022-12-13T07:05:02.879Z,97576.34
2022-12-13T07:07:29.895Z,97569.63
2022-12-13T07:09:56.431Z,97573.38
2022-12-13T07:12:23.522Z,97573.09
2022-12-13T07:14:50.461Z,97569.16
2022-12-13T07:17:33.281Z,97575.38
2022-12-13T07:20:08.160Z,97580.63
2022-12-13T07:22:38.770Z,97582.38
2022-12-13T07:25:26.924Z,97579.47
2022-12-13T07:28:03.508Z,97581.25
2022-12-13T07:30:32.915Z,97588.44
2022-12-13T07:33:01.934Z,97594.69
2022-12-13T07:35:29.073Z,97592.41
2022-12-13T07:37:55.845Z,97593.06
2022-12-13T07:40:22.579Z,97601.88
2022-12-13T07:42:56.055Z,97606.28
2022-12-13T07:45:23.463Z,97609.72
2022-12-13T07:47:49.994Z,97610.88
2022-12-13T07:50:24.990Z,97615.59
2022-12-13T07:52:53.503Z,97615.25
2022-12-13T07:55:23.488Z,97604.13
2022-12-13T07:58:05.260Z,97606.72
2022-12-13T08:00:32.255Z,97611.63
2022-12-13T08:03:00.900Z,97622.81
2022-12-13T08:05:28.166Z,97601.84
2022-12-13T08:07:54.809Z,97608.88
2022-12-13T08:10:21.703Z,97612.28
2022-12-13T08:12:50.064Z,97614.31
2022-12-13T08:15:17.778Z,97610.50
2022-12-13T08:17:44.453Z,97609.59
2022-12-13T08:20:11.631Z,97608.53
2022-12-13T08:22:38.114Z,97606.53
2022-12-13T08:25:06.373Z,97611.53
2022-12-13T08:27:33.352Z,97616.97
2022-12-13T08:29:59.825Z,97614.88
2022-12-13T08:32:26.693Z,97620.31
2022-12-13T08:34:53.242Z,97620.97
2022-12-13T08:37:19.703Z,97616.19
2022-12-13T08:39:46.163Z,97617.22
2022-12-13T08:42:19.839Z,97625.91
2022-12-13T08:44:51.465Z,97631.31
2022-12-13T08:47:26.065Z,97637.97
2022-12-13T08:50:02.530Z,97640.88
2022-12-13T08:52:31.746Z,97636.91
2022-12-13T08:54:58.281Z,97639.19
2022-12-13T08:57:24.946Z,97640.13
2022-12-13T08:59:51.445Z,97632.91
2022-12-13T09:02:18.131Z,97649.84
2022-12-13T09:04:44.774Z,97646.09
2022-12-13T09:07:11.594Z,97632.13
2022-12-13T09:09:38.112Z,97625.59
2022-12-13T09:12:10.667Z,97619.47
2022-12-13T09:14:37.796Z,97624.88
2022-12-13T09:17:24.176Z,97612.72
2022-12-13T09:19:58.079Z,97614.47
2022-12-13T09:22:33.579Z,97624.22
2022-12-13T09:25:02.473Z,97616.00
2022-12-13T09:27:30.803Z,97617.22
2022-12-13T09:30:07.991Z,97611.81
2022-12-13T09:32:34.474Z,97610.88
2022-12-13T09:35:00.904Z,97612.47
2022-12-13T09:37:27.552Z,97614.81
2022-12-13T09:39:55.137Z,97610.53
2022-12-13T09:42:30.159Z,97595.28
2022-12-13T09:45:06.421Z,97612.66
2022-12-13T09:47:50.629Z,97611.31
2022-12-13T09:50:27.061Z,97605.50
2022-12-13T09:52:59.844Z,97598.69
2022-12-13T09:55:30.760Z,97598.88
2022-12-13T09:57:59.393Z,97592.22
2022-12-13T10:00:33.110Z,97590.03
2022-12-13T10:03:00.587Z,97604.13
2022-12-13T10:05:39.141Z,97607.38
2022-12-13T10:08:21.731Z,97596.63
2022-12-13T10:10:50.537Z,97598.16
2022-12-13T10:13:42.031Z,97591.31
2022-12-13T10:16:36.555Z,97588.88
2022-12-13T10:19:36.847Z,97604.63
2022-12-13T10:22:06.080Z,97595.56
2022-12-13T10:24:51.963Z,97595.31
2022-12-13T10:27:23.194Z,97592.22
2022-12-13T10:29:58.015Z,97591.91
2022-12-13T10:32:24.535Z,97595.81
2022-12-13T10:34:50.999Z,97583.13
2022-12-13T10:37:23.506Z,97585.31
2022-12-13T10:39:50.507Z,97584.06
2022-12-13T10:42:22.684Z,97588.16
2022-12-13T10:45:10.608Z,97585.88
2022-12-13T10:47:37.326Z,97583.41
2022-12-13T10:50:04.226Z,97578.25
2022-12-13T10:52:34.282Z,97565.28
2022-12-13T10:55:30.168Z,97568.59
2022-12-13T10:58:00.882Z,97565.84
2022-12-13T11:00:47.652Z,97564.81
2022-12-13T11:03:30.651Z,97556.00
2022-12-13T11:06:23.164Z,97567.16
2022-12-13T11:08:49.673Z,97564.03
2022-12-13T11:11:18.459Z,97558.03
2022-12-13T11:13:47.466Z,97558.34
2022-12-13T11:16:30.570Z,97552.34
2022-12-13T11:19:08.343Z,97538.50
2022-12-13T11:21:37.475Z,97530.44
2022-12-13T11:24:07.596Z,97528.84
2022-12-13T11:26:37.815Z,97521.72
2022-12-13T11:29:16.409Z,97517.09
2022-12-13T11:32:23.112Z,97519.50
2022-12-13T11:35:14.668Z,97523.56
2022-12-13T11:38:14.701Z,97522.72
2022-12-13T11:40:53.026Z,97525.31
2022-12-13T11:43:32.491Z,97518.22
2022-12-13T11:46:04.942Z,97525.56
2022-12-13T11:49:16.594Z,97523.72
2022-12-13T11:51:49.005Z,97528.78
2022-12-13T11:54:28.218Z,97541.00
2022-12-13T11:57:00.790Z,97517.88
2022-12-13T11:59:27.897Z,97529.03
2022-12-13T12:02:07.392Z,97531.72
2022-12-13T12:04:58.331Z,97519.38
2022-12-13T12:08:05.135Z,97531.50
2022-12-13T12:10:36.369Z,97542.63
2022-12-13T12:13:34.525Z,97533.94
2022-12-13T12:16:43.184Z,97532.34
2022-12-13T12:19:14.669Z,97521.16
2022-12-13T12:22:12.714Z,97509.81
2022-12-13T12:24:46.683Z,97520.16
2022-12-13T12:27:23.125Z,97510.22
2022-12-13T12:30:01.937Z,97511.03
2022-12-13T12:32:34.477Z,97517.94
2022-12-13T12:35:19.455Z,97515.09
2022-12-13T12:38:03.928Z,97520.75
2022-12-13T12:41:15.708Z,97513.63
2022-12-13T12:43:42.593Z,97519.16
2022-12-13T12:46:09.019Z,97519.78
2022-12-13T12:49:13.262Z,97506.94
2022-12-13T12:52:05.108Z,97509.59
2022-12-13T12:55:09.591Z,97515.09
2022-12-13T12:57:43.933Z,97512.66
2022-12-13T13:00:19.013Z,97514.25
2022-12-13T13:03:01.537Z,97502.06
2022-12-13T13:05:57.102Z,97504.91
2022-12-13T13:09:04.389Z,97502.47
2022-12-13T13:11:43.237Z,97502.06
2022-12-13T13:14:32.265Z,97491.09
2022-12-13T13:17:00.629Z,97507.38
2022-12-13T13:19:32.828Z,97510.00
2022-12-13T13:22:01.341Z,97505.13
2022-12-13T13:24:31.019Z,97496.59
2022-12-13T13:27:09.584Z,97503.91
2022-12-13T13:29:38.030Z,97499.03
2022-12-13T13:32:12.456Z,97497.59
2022-12-13T13:35:00.599Z,97490.91
2022-12-13T13:37:43.878Z,97491.94
2022-12-13T13:40:13.264Z,97492.53
2022-12-13T13:42:57.097Z,97485.81
2022-12-13T13:45:27.520Z,97491.50
2022-12-13T13:48:19.581Z,97475.63
2022-12-13T13:51:21.360Z,97481.75
2022-12-13T13:54:08.437Z,97475.84
2022-12-13T13:57:03.886Z,97478.47
2022-12-13T13:59:55.156Z,97476.03
2022-12-13T14:02:33.851Z,97473.59
2022-12-13T14:05:47.161Z,97473.59
2022-12-13T14:08:24.225Z,97474.00
2022-12-13T14:11:41.855Z,97460.34
2022-12-13T14:14:38.581Z,97464.59
2022-12-13T14:17:14.318Z,97472.34
2022-12-13T14:20:28.971Z,97462.59
2022-12-13T14:22:55.331Z,97467.44
2022-12-13T14:25:33.629Z,97463.44
2022-12-13T14:28:42.514Z,97470.94
2022-12-13T14:31:47.977Z,97459.94
2022-12-13T14:34:23.387Z,97467.00
2022-12-13T14:37:00.838Z,97463.78
2022-12-13T14:39:33.990Z,97464.56
2022-12-13T14:42:02.807Z,97451.53
2022-12-13T14:44:35.157Z,97455.97
2022-12-13T14:47:08.201Z,97451.13
2022-12-13T14:49:38.873Z,97453.72
2022-12-13T14:52:09.387Z,97449.50
2022-12-13T14:54:49.408Z,97460.84
2022-12-13T14:57:19.416Z,97460.03
2022-12-13T14:59:52.179Z,97460.63
2022-12-13T15:02:31.134Z,97462.00
2022-12-13T15:05:01.156Z,97454.31
2022-12-13T15:07:30.485Z,97461.84
2022-12-13T15:10:03.291Z,97458.56
2022-12-13T15:12:30.649Z,97453.81
2022-12-13T15:15:01.754Z,97457.09
2022-12-13T15:17:32.879Z,97448.16
2022-12-13T15:20:00.672Z,97465.34
2022-12-13T15:22:29.746Z,97469.63
2022-12-13T15:24:58.007Z,97479.41
2022-12-13T15:27:25.434Z,97471.25
2022-12-13T15:29:54.257Z,97475.72
2022-12-13T15:32:23.315Z,97480.63
2022-12-13T15:34:51.440Z,97483.88
2022-12-13T15:37:29.006Z,97483.88
2022-12-13T15:40:00.002Z,97487.53
2022-12-13T15:42:36.970Z,97473.25
2022-12-13T15:45:06.885Z,97485.06
2022-12-13T15:47:33.646Z,97485.44
2022-12-13T15:50:06.064Z,97483.00
2022-12-13T15:52:36.485Z,97493.94
2022-12-13T15:55:05.774Z,97489.44
2022-12-13T15:57:48.310Z,97490.25
2022-12-13T16:00:18.098Z,97490.25
2022-12-13T16:03:11.442Z,97500.47
2022-12-13T16:05:46.537Z,97489.91
2022-12-13T16:08:30.042Z,97477.66
2022-12-13T16:10:58.288Z,97463.94
2022-12-13T16:13:33.674Z,97476.28
2022-12-13T16:16:27.871Z,97469.84
2022-12-13T16:18:57.708Z,97456.81
2022-12-13T16:21:25.538Z,97465.34
2022-12-13T16:23:52.484Z,97461.69
2022-12-13T16:26:25.617Z,97459.22
2022-12-13T16:28:58.624Z,97450.28
2022-12-13T16:31:31.259Z,97442.81
2022-12-13T16:33:57.832Z,97436.00
2022-12-13T16:36:24.330Z,97431.13
2022-12-13T16:38:51.535Z,97430.38
2022-12-13T16:41:18.184Z,97433.69
2022-12-13T16:43:54.273Z,97433.31
2022-12-13T16:47:12.980Z,97418.66
2022-12-13T16:49:28.506Z,97418.59
2022-12-13T16:51:56.234Z,97404.41
2022-12-13T16:54:25.053Z,97403.81
2022-12-13T16:56:52.582Z,97403.78
2022-12-13T16:59:22.561Z,97399.53
2022-12-13T17:01:50.404Z,97387.72
2022-12-13T17:04:21.586Z,97399.03
2022-12-13T17:06:55.055Z,97394.25
2022-12-13T17:09:22.653Z,97392.09
2022-12-13T17:11:49.161Z,97387.22
2022-12-13T17:14:15.609Z,97382.97
2022-12-13T17:16:42.241Z,97387.97
2022-12-13T17:19:10.784Z,97375.88
2022-12-13T17:21:37.611Z,97383.13
2022-12-13T17:24:04.357Z,97375.31
2022-12-13T17:26:30.788Z,97373.41
2022-12-13T17:28:57.275Z,97375.88
2022-12-13T17:31:23.960Z,97373.91
2022-12-13T17:33:50.507Z,97373.63
2022-12-13T17:36:17.203Z,97383.94
2022-12-13T17:38:45.759Z,97396.84
2022-12-13T17:41:15.803Z,97391.06
2022-12-13T17:43:43.192Z,97402.84
2022-12-13T17:46:15.400Z,97399.41
2022-12-13T17:48:43.031Z,97396.41
2022-12-13T17:51:10.657Z,97395.88
2022-12-13T17:53:39.453Z,97390.63
2022-12-13T17:56:08.066Z,97395.88
2022-12-13T17:58:35.473Z,97403.25
2022-12-13T18:01:25.141Z,97391.34
2022-12-13T18:03:54.122Z,97379.44
2022-12-13T18:06:20.656Z,97385.16
2022-12-13T18:08:47.770Z,97391.06
2022-12-13T18:11:32.508Z,97391.09
2022-12-13T18:14:00.020Z,97381.19
2022-12-13T18:16:34.045Z,97390.34
2022-12-13T18:19:03.947Z,97386.91
2022-12-13T18:21:30.453Z,97401.53
2022-12-13T18:23:59.260Z,97400.34
2022-12-13T18:26:25.779Z,97403.28
2022-12-13T18:28:52.339Z,97399.56
2022-12-13T18:31:23.551Z,97395.88
2022-12-13T18:33:52.516Z,97388.72
2022-12-13T18:36:21.281Z,97388.03
2022-12-13T18:38:48.053Z,97394.56
2022-12-13T18:41:17.616Z,97391.88
2022-12-13T18:43:44.827Z,97383.53
2022-12-13T18:46:13.421Z,97368.31
2022-12-13T18:48:40.944Z,97375.34
2022-12-13T18:51:08.934Z,97380.59
2022-12-13T18:53:37.214Z,97371.94
2022-12-13T18:56:16.200Z,97358.03
2022-12-13T18:58:45.704Z,97360.28
2022-12-13T19:01:13.155Z,97354.16
2022-12-13T19:03:41.507Z,97347.91
2022-12-13T19:06:08.105Z,97353.91
2022-12-13T19:08:36.368Z,97347.53
2022-12-13T19:11:04.023Z,97340.97
2022-12-13T19:13:32.297Z,97338.28
2022-12-13T19:16:06.429Z,97338.50
2022-12-13T19:18:33.590Z,97336.94
2022-12-13T19:21:00.264Z,97339.94
2022-12-13T19:23:27.123Z,97325.72
2022-12-13T19:25:53.912Z,97319.53
2022-12-13T19:28:20.400Z,97314.66
2022-12-13T19:30:47.883Z,97322.13
2022-12-13T19:33:15.046Z,97323.69
2022-12-13T19:35:43.203Z,97322.97
2022-12-13T19:38:10.374Z,97308.31
2022-12-13T19:40:41.017Z,97297.16
2022-12-13T19:43:07.725Z,97305.09
2022-12-13T19:45:34.248Z,97312.09
2022-12-13T19:48:00.778Z,97303.31
2022-12-13T19:50:29.409Z,97295.84
2022-12-13T19:52:56.127Z,97286.59
2022-12-13T19:55:22.624Z,97290.88
2022-12-13T19:57:49.180Z,97288.63
2022-12-13T20:00:16.095Z,97281.16
2022-12-13T20:02:42.681Z,97266.94
2022-12-13T20:05:09.598Z,97267.31
2022-12-13T20:07:36.319Z,97267.69
2022-12-13T20:10:04.013Z,97270.97
2022-12-13T20:12:34.189Z,97262.69
2022-12-13T20:15:05.019Z,97256.75
2022-12-13T20:17:32.324Z,97243.38
2022-12-13T20:19:58.870Z,97243.59
2022-12-13T20:22:25.363Z,97236.88
2022-12-13T20:24:51.842Z,97244.56
2022-12-13T20:27:19.977Z,97247.88
2022-12-13T20:29:48.688Z,97254.78
2022-12-13T20:32:15.352Z,97242.19
2022-12-13T20:34:42.149Z,97241.63
2022-12-13T20:37:08.754Z,97242.84
2022-12-13T20:39:35.305Z,97249.91
2022-12-13T20:42:01.758Z,97244.81
2022-12-13T20:44:28.371Z,97259.19
2022-12-13T20:46:54.993Z,97255.94
2022-12-13T20:49:21.672Z,97261.97
2022-12-13T20:51:48.134Z,97266.09
2022-12-13T20:54:14.585Z,97259.03
2022-12-13T20:56:41.120Z,97254.72
2022-12-13T20:59:10.810Z,97259.22
2022-12-13T21:01:40.525Z,97256.41
2022-12-13T21:04:08.686Z,97249.13
2022-12-13T21:06:37.007Z,97249.53
2022-12-13T21:09:04.798Z,97248.03
2022-12-13T21:11:39.848Z,97250.28
2022-12-13T21:14:11.151Z,97248.25
2022-12-13T21:16:53.215Z,97252.72
2022-12-13T21:19:22.560Z,97260.06
2022-12-13T21:21:49.539Z,97249.56
2022-12-13T21:24:17.322Z,97249.13
2022-12-13T21:26:44.604Z,97242.44
2022-12-13T21:29:13.068Z,97248.91
2022-12-13T21:31:44.508Z,97249.75
2022-12-13T21:34:16.606Z,97237.69
2022-12-13T21:36:45.413Z,97231.69
2022-12-13T21:39:20.111Z,97234.50
2022-12-13T21:41:46.644Z,97222.97
2022-12-13T21:44:16.339Z,97225.22
2022-12-13T21:49:29.784Z,97246.69
2022-12-13T21:51:56.213Z,97231.28
2022-12-13T21:54:22.870Z,97243.66
2022-12-13T21:57:08.415Z,97229.69
2022-12-13T21:59:35.065Z,97221.56
2022-12-13T22:02:11.873Z,97226.00
2022-12-13T22:04:44.611Z,97221.66
2022-12-13T22:07:20.198Z,97217.56
2022-12-13T22:09:48.043Z,97212.72
2022-12-13T22:12:30.422Z,97216.38
2022-12-13T22:14:56.930Z,97202.84
2022-12-13T22:17:31.037Z,97218.78
2022-12-13T22:19:59.834Z,97202.53
2022-12-13T22:22:26.582Z,97195.94
2022-12-13T22:24:54.166Z,97215.13
2022-12-13T22:27:25.424Z,97211.31
2022-12-13T22:29:57.242Z,97213.59
2022-12-13T22:32:28.818Z,97191.28
2022-12-13T22:34:55.974Z,97197.47
2022-12-13T22:37:22.962Z,97177.28
2022-12-13T22:39:49.872Z,97179.94
2022-12-13T22:42:16.346Z,97178.28
2022-12-13T22:44:43.012Z,97186.44
2022-12-13T22:47:09.542Z,97177.34
2022-12-13T22:49:36.041Z,97186.88
2022-12-13T22:52:02.602Z,97178.75
2022-12-13T22:54:29.089Z,97182.38
2022-12-13T22:56:55.554Z,97176.69
2022-12-13T22:59:22.057Z,97180.41
2022-12-13T23:01:48.590Z,97162.19
2022-12-13T23:04:15.488Z,97167.06
2022-12-13T23:06:42.022Z,97170.69
2022-12-13T23:09:12.594Z,97170.88
2022-12-13T23:11:58.126Z,97165.84
2022-12-13T23:14:30.614Z,97157.75
2022-12-13T23:16:57.589Z,97150.41
2022-12-13T23:22:10.773Z,97141.66
2022-12-13T23:24:37.256Z,97142.13
2022-12-13T23:27:03.843Z,97142.72
2022-12-13T23:29:30.679Z,97146.78
2022-12-13T23:31:57.103Z,97133.63
2022-12-13T23:34:23.630Z,97147.22
2022-12-13T23:36:50.099Z,97138.34
2022-12-13T23:39:16.562Z,97135.88
2022-12-13T23:41:43.064Z,97128.56
2022-12-13T23:44:10.105Z,97133.47
2022-12-13T23:46:37.012Z,97132.03
2022-12-13T23:49:05.434Z,97121.47
2022-12-13T23:51:32.502Z,97122.53
2022-12-13T23:53:59.204Z,97119.09
2022-12-13T23:56:25.693Z,97122.94
2022-12-13T23:58:52.175Z,97118.88
